sensor_id;sensor_type;location;lat;lon;timestamp;pressure;altitude;pressure_sealevel;temperature;humidity
76434;BME280;65265;53.200;6.080;2023-02-23T00:03:59;101270.78;;;6.86;99.20
76434;BME280;65265;53.200;6.080;2023-02-23T00:08:51;101276.66;;;6.85;99.47
76434;BME280;65265;53.200;6.080;2023-02-23T00:13:46;101280.06;;;6.86;99.59
76434;BME280;65265;53.200;6.080;2023-02-23T00:18:41;101263.16;;;6.86;99.39
76434;BME280;65265;53.200;6.080;2023-02-23T00:23:35;101265.78;;;6.88;99.26
76434;BME280;65265;53.200;6.080;2023-02-23T00:28:27;101258.06;;;6.86;99.16
76434;BME280;65265;53.200;6.080;2023-02-23T00:33:21;101257.88;;;6.83;99.00
76434;BME280;65265;53.200;6.080;2023-02-23T00:38:12;101261.19;;;6.82;99.07
76434;BME280;65265;53.200;6.080;2023-02-23T00:43:04;101262.78;;;6.80;98.89
76434;BME280;65265;53.200;6.080;2023-02-23T00:47:55;101257.69;;;6.80;98.95
76434;BME280;65265;53.200;6.080;2023-02-23T00:52:48;101248.31;;;6.79;98.80
76434;BME280;65265;53.200;6.080;2023-02-23T00:57:40;101252.59;;;6.80;98.72
76434;BME280;65265;53.200;6.080;2023-02-23T01:02:32;101255.25;;;6.82;98.75
76434;BME280;65265;53.200;6.080;2023-02-23T01:07:23;101262.19;;;6.84;98.81
76434;BME280;65265;53.200;6.080;2023-02-23T01:12:17;101257.00;;;6.83;98.72
76434;BME280;65265;53.200;6.080;2023-02-23T01:17:09;101259.44;;;6.81;98.77
76434;BME280;65265;53.200;6.080;2023-02-23T01:22:00;101269.72;;;6.83;98.73
76434;BME280;65265;53.200;6.080;2023-02-23T01:26:52;101272.25;;;6.83;98.76
76434;BME280;65265;53.200;6.080;2023-02-23T01:31:47;101273.91;;;6.82;98.82
76434;BME280;65265;53.200;6.080;2023-02-23T01:36:41;101270.56;;;6.83;99.13
76434;BME280;65265;53.200;6.080;2023-02-23T01:41:34;101282.41;;;6.83;99.08
76434;BME280;65265;53.200;6.080;2023-02-23T01:46:26;101279.78;;;6.81;99.13
76434;BME280;65265;53.200;6.080;2023-02-23T01:51:20;101283.28;;;6.83;99.32
76434;BME280;65265;53.200;6.080;2023-02-23T01:56:17;101287.50;;;6.83;99.42
76434;BME280;65265;53.200;6.080;2023-02-23T02:01:11;101287.41;;;6.81;99.60
76434;BME280;65265;53.200;6.080;2023-02-23T02:06:05;101277.94;;;6.79;99.67
76434;BME280;65265;53.200;6.080;2023-02-23T02:11:00;101289.88;;;6.80;99.81
76434;BME280;65265;53.200;6.080;2023-02-23T02:16:19;101293.19;;;6.79;99.94
76434;BME280;65265;53.200;6.080;2023-02-23T02:21:47;101293.28;;;6.80;99.79
76434;BME280;65265;53.200;6.080;2023-02-23T02:26:53;101298.34;;;6.80;100.00
76434;BME280;65265;53.200;6.080;2023-02-23T02:37:18;101295.75;;;6.79;100.00
76434;BME280;65265;53.200;6.080;2023-02-23T02:42:14;101292.41;;;6.80;100.00
76434;BME280;65265;53.200;6.080;2023-02-23T02:47:16;101290.72;;;6.80;100.00
76434;BME280;65265;53.200;6.080;2023-02-23T02:52:15;101288.19;;;6.80;100.00
76434;BME280;65265;53.200;6.080;2023-02-23T02:57:10;101282.25;;;6.80;100.00
76434;BME280;65265;53.200;6.080;2023-02-23T03:02:04;101295.81;;;6.80;100.00
76434;BME280;65265;53.200;6.080;2023-02-23T03:07:25;101289.75;;;6.78;100.00
76434;BME280;65265;53.200;6.080;2023-02-23T03:12:43;101292.19;;;6.77;100.00
76434;BME280;65265;53.200;6.080;2023-02-23T03:17:59;101293.78;;;6.75;100.00
76434;BME280;65265;53.200;6.080;2023-02-23T03:23:19;101296.59;;;6.79;100.00
76434;BME280;65265;53.200;6.080;2023-02-23T03:28:33;101306.59;;;6.76;100.00
76434;BME280;65265;53.200;6.080;2023-02-23T03:33:46;101302.78;;;6.70;100.00
76434;BME280;65265;53.200;6.080;2023-02-23T03:39:03;101310.69;;;6.74;100.00
76434;BME280;65265;53.200;6.080;2023-02-23T03:44:22;101319.13;;;6.73;100.00
76434;BME280;65265;53.200;6.080;2023-02-23T03:49:36;101324.28;;;6.75;100.00
76434;BME280;65265;53.200;6.080;2023-02-23T03:54:52;101321.44;;;6.70;100.00
76434;BME280;65265;53.200;6.080;2023-02-23T04:00:05;101322.16;;;6.68;100.00
76434;BME280;65265;53.200;6.080;2023-02-23T04:05:17;101331.59;;;6.70;100.00
76434;BME280;65265;53.200;6.080;2023-02-23T04:10:29;101331.59;;;6.70;100.00
76434;BME280;65265;53.200;6.080;2023-02-23T04:15:43;101322.22;;;6.69;100.00
76434;BME280;65265;53.200;6.080;2023-02-23T04:20:36;101338.94;;;6.66;100.00
76434;BME280;65265;53.200;6.080;2023-02-23T04:25:29;101334.75;;;6.66;100.00
76434;BME280;65265;53.200;6.080;2023-02-23T04:30:21;101333.97;;;6.67;100.00
76434;BME280;65265;53.200;6.080;2023-02-23T04:35:14;101339.66;;;6.63;100.00
76434;BME280;65265;53.200;6.080;2023-02-23T04:40:07;101350.78;;;6.65;100.00
76434;BME280;65265;53.200;6.080;2023-02-23T04:45:00;101349.72;;;6.62;99.87
76434;BME280;65265;53.200;6.080;2023-02-23T04:49:52;101352.34;;;6.63;100.00
76434;BME280;65265;53.200;6.080;2023-02-23T04:54:44;101346.31;;;6.61;99.93
76434;BME280;65265;53.200;6.080;2023-02-23T04:59:35;101361.63;;;6.63;99.89
76434;BME280;65265;53.200;6.080;2023-02-23T05:04:28;101363.19;;;6.61;99.96
76434;BME280;65265;53.200;6.080;2023-02-23T05:09:19;101360.56;;;6.59;99.73
76434;BME280;65265;53.200;6.080;2023-02-23T05:14:11;101366.63;;;6.61;99.80
76434;BME280;65265;53.200;6.080;2023-02-23T05:19:03;101364.00;;;6.60;99.65
76434;BME280;65265;53.200;6.080;2023-02-23T05:23:56;101369.75;;;6.57;99.63
76434;BME280;65265;53.200;6.080;2023-02-23T05:28:47;101362.22;;;6.59;99.76
76434;BME280;65265;53.200;6.080;2023-02-23T05:33:39;101371.31;;;6.55;99.56
76434;BME280;65265;53.200;6.080;2023-02-23T05:38:32;101360.97;;;6.52;99.63
76434;BME280;65265;53.200;6.080;2023-02-23T05:43:25;101371.22;;;6.54;99.63
76434;BME280;65265;53.200;6.080;2023-02-23T05:48:16;101371.13;;;6.52;99.69
76434;BME280;65265;53.200;6.080;2023-02-23T05:53:08;101359.22;;;6.51;99.72
76434;BME280;65265;53.200;6.080;2023-02-23T05:58:00;101365.16;;;6.52;99.38
76434;BME280;65265;53.200;6.080;2023-02-23T06:02:53;101359.22;;;6.51;99.68
76434;BME280;65265;53.200;6.080;2023-02-23T06:07:44;101363.41;;;6.51;99.62
76434;BME280;65265;53.200;6.080;2023-02-23T06:12:36;101366.72;;;6.50;99.67
76434;BME280;65265;53.200;6.080;2023-02-23T06:17:27;101373.44;;;6.49;99.65
76434;BME280;65265;53.200;6.080;2023-02-23T06:22:20;101383.53;;;6.48;99.54
76434;BME280;65265;53.200;6.080;2023-02-23T06:27:12;101392.03;;;6.48;99.67
76434;BME280;65265;53.200;6.080;2023-02-23T06:32:04;101394.56;;;6.48;99.59
76434;BME280;65265;53.200;6.080;2023-02-23T06:36:56;101405.44;;;6.46;99.47
76434;BME280;65265;53.200;6.080;2023-02-23T06:41:49;101413.06;;;6.46;99.39
76434;BME280;65265;53.200;6.080;2023-02-23T06:46:41;101413.84;;;6.45;99.35
76434;BME280;65265;53.200;6.080;2023-02-23T06:51:32;101425.63;;;6.44;99.27
76434;BME280;65265;53.200;6.080;2023-02-23T06:56:24;101435.81;;;6.44;98.97
76434;BME280;65265;53.200;6.080;2023-02-23T07:01:17;101431.50;;;6.43;99.01
76434;BME280;65265;53.200;6.080;2023-02-23T07:06:10;101433.94;;;6.42;98.75
76434;BME280;65265;53.200;6.080;2023-02-23T07:11:06;101439.81;;;6.41;98.73
76434;BME280;65265;53.200;6.080;2023-02-23T07:15:57;101450.84;;;6.41;98.55
76434;BME280;65265;53.200;6.080;2023-02-23T07:20:50;101458.47;;;6.41;98.62
76434;BME280;65265;53.200;6.080;2023-02-23T07:25:42;101458.38;;;6.40;98.18
76434;BME280;65265;53.200;6.080;2023-02-23T07:30:33;101461.81;;;6.40;98.17
76434;BME280;65265;53.200;6.080;2023-02-23T07:35:25;101463.63;;;6.43;97.83
76434;BME280;65265;53.200;6.080;2023-02-23T07:40:18;101475.66;;;6.45;97.84
76434;BME280;65265;53.200;6.080;2023-02-23T07:45:10;101481.84;;;6.49;97.85
76434;BME280;65265;53.200;6.080;2023-02-23T07:50:02;101483.72;;;6.51;97.86
76434;BME280;65265;53.200;6.080;2023-02-23T07:54:58;101482.13;;;6.53;97.62
76434;BME280;65265;53.200;6.080;2023-02-23T07:59:51;101486.31;;;6.53;97.65
76434;BME280;65265;53.200;6.080;2023-02-23T08:04:43;101495.22;;;6.59;97.64
76434;BME280;65265;53.200;6.080;2023-02-23T08:09:35;101503.84;;;6.61;97.74
76434;BME280;65265;53.200;6.080;2023-02-23T08:14:27;101508.94;;;6.61;97.36
76434;BME280;65265;53.200;6.080;2023-02-23T08:19:20;101507.44;;;6.65;97.40
76434;BME280;65265;53.200;6.080;2023-02-23T08:24:12;101499.94;;;6.66;97.24
76434;BME280;65265;53.200;6.080;2023-02-23T08:29:04;101504.44;;;6.70;97.18
76434;BME280;65265;53.200;6.080;2023-02-23T08:33:55;101514.03;;;6.74;97.17
76434;BME280;65265;53.200;6.080;2023-02-23T08:38:48;101518.53;;;6.78;97.08
76434;BME280;65265;53.200;6.080;2023-02-23T08:43:40;101523.72;;;6.80;96.95
76434;BME280;65265;53.200;6.080;2023-02-23T08:48:31;101518.81;;;6.83;96.67
76434;BME280;65265;53.200;6.080;2023-02-23T08:53:23;101526.56;;;6.84;96.58
76434;BME280;65265;53.200;6.080;2023-02-23T08:58:16;101534.38;;;6.87;96.85
76434;BME280;65265;53.200;6.080;2023-02-23T09:03:07;101532.81;;;6.89;96.71
76434;BME280;65265;53.200;6.080;2023-02-23T09:07:59;101527.91;;;6.92;97.18
76434;BME280;65265;53.200;6.080;2023-02-23T09:12:50;101537.13;;;7.03;97.47
76434;BME280;65265;53.200;6.080;2023-02-23T09:17:43;101533.41;;;7.11;97.76
76434;BME280;65265;53.200;6.080;2023-02-23T09:22:36;101532.53;;;7.23;97.72
76434;BME280;65265;53.200;6.080;2023-02-23T09:27:27;101537.50;;;7.35;97.95
76434;BME280;65265;53.200;6.080;2023-02-23T09:32:19;101543.06;;;7.42;97.78
76434;BME280;65265;53.200;6.080;2023-02-23T09:37:11;101539.94;;;7.46;97.72
76434;BME280;65265;53.200;6.080;2023-02-23T09:42:16;101544.53;;;7.52;97.54
76434;BME280;65265;53.200;6.080;2023-02-23T09:47:25;101547.94;;;7.52;97.49
76434;BME280;65265;53.200;6.080;2023-02-23T09:52:26;101550.78;;;7.57;97.54
76434;BME280;65265;53.200;6.080;2023-02-23T09:57:22;101551.75;;;7.59;97.51
76434;BME280;65265;53.200;6.080;2023-02-23T10:02:22;101553.50;;;7.60;97.15
76434;BME280;65265;53.200;6.080;2023-02-23T10:07:18;101560.28;;;7.59;97.42
76434;BME280;65265;53.200;6.080;2023-02-23T10:12:20;101570.66;;;7.62;97.61
76434;BME280;65265;53.200;6.080;2023-02-23T10:17:28;101572.31;;;7.75;97.95
76434;BME280;65265;53.200;6.080;2023-02-23T10:22:25;101577.16;;;7.98;97.78
76434;BME280;65265;53.200;6.080;2023-02-23T10:27:20;101583.84;;;8.10;97.22
76434;BME280;65265;53.200;6.080;2023-02-23T10:32:17;101579.66;;;8.11;95.61
76434;BME280;65265;53.200;6.080;2023-02-23T10:37:12;101583.50;;;8.04;93.84
76434;BME280;65265;53.200;6.080;2023-02-23T10:42:11;101585.56;;;7.97;93.07
76434;BME280;65265;53.200;6.080;2023-02-23T10:47:10;101587.09;;;8.08;93.89
76434;BME280;65265;53.200;6.080;2023-02-23T10:52:04;101589.03;;;8.25;93.33
76434;BME280;65265;53.200;6.080;2023-02-23T10:56:56;101598.72;;;8.30;91.66
76434;BME280;65265;53.200;6.080;2023-02-23T11:01:48;101590.91;;;8.27;89.11
76434;BME280;65265;53.200;6.080;2023-02-23T11:06:41;101615.81;;;8.18;88.37
76434;BME280;65265;53.200;6.080;2023-02-23T11:11:33;101615.13;;;8.08;89.04
76434;BME280;65265;53.200;6.080;2023-02-23T11:16:28;101614.56;;;7.99;89.74
76434;BME280;65265;53.200;6.080;2023-02-23T11:21:25;101613.59;;;7.97;90.74
76434;BME280;65265;53.200;6.080;2023-02-23T11:26:27;101618.25;;;8.04;91.23
76434;BME280;65265;53.200;6.080;2023-02-23T11:31:20;101610.72;;;8.05;91.56
76434;BME280;65265;53.200;6.080;2023-02-23T11:36:16;101617.06;;;8.12;91.66
76434;BME280;65265;53.200;6.080;2023-02-23T11:41:18;101607.56;;;8.09;91.42
76434;BME280;65265;53.200;6.080;2023-02-23T11:46:13;101611.97;;;8.12;92.01
76434;BME280;65265;53.200;6.080;2023-02-23T11:51:05;101617.25;;;8.15;91.88
76434;BME280;65265;53.200;6.080;2023-02-23T11:55:58;101615.31;;;8.11;92.11
76434;BME280;65265;53.200;6.080;2023-02-23T12:00:58;101608.47;;;8.10;93.08
76434;BME280;65265;53.200;6.080;2023-02-23T12:05:53;101617.06;;;8.12;93.32
76434;BME280;65265;53.200;6.080;2023-02-23T12:10:50;101628.03;;;8.11;93.79
76434;BME280;65265;53.200;6.080;2023-02-23T12:15:49;101620.22;;;8.08;94.24
76434;BME280;65265;53.200;6.080;2023-02-23T12:20:43;101626.59;;;7.88;94.87
76434;BME280;65265;53.200;6.080;2023-02-23T12:25:42;101626.75;;;7.77;95.13
76434;BME280;65265;53.200;6.080;2023-02-23T12:30:43;101616.75;;;7.67;95.97
76434;BME280;65265;53.200;6.080;2023-02-23T12:35:43;101621.69;;;7.51;95.86
76434;BME280;65265;53.200;6.080;2023-02-23T12:40:39;101634.84;;;7.32;96.50
76434;BME280;65265;53.200;6.080;2023-02-23T12:45:38;101633.19;;;7.20;97.18
76434;BME280;65265;53.200;6.080;2023-02-23T12:50:36;101642.56;;;6.95;96.71
76434;BME280;65265;53.200;6.080;2023-02-23T12:55:33;101656.25;;;6.97;96.92
76434;BME280;65265;53.200;6.080;2023-02-23T13:00:36;101650.84;;;6.93;96.02
76434;BME280;65265;53.200;6.080;2023-02-23T13:05:30;101648.63;;;6.97;96.09
76434;BME280;65265;53.200;6.080;2023-02-23T13:10:29;101644.78;;;6.91;96.08
76434;BME280;65265;53.200;6.080;2023-02-23T13:15:29;101658.13;;;6.75;94.65
76434;BME280;65265;53.200;6.080;2023-02-23T13:20:29;101652.78;;;6.84;95.00
76434;BME280;65265;53.200;6.080;2023-02-23T13:25:28;101661.00;;;6.80;92.97
76434;BME280;65265;53.200;6.080;2023-02-23T13:30:23;101664.34;;;6.67;90.94
76434;BME280;65265;53.200;6.080;2023-02-23T13:35:16;101670.53;;;6.71;92.51
76434;BME280;65265;53.200;6.080;2023-02-23T13:40:27;101668.50;;;6.78;92.41
76434;BME280;65265;53.200;6.080;2023-02-23T13:45:27;101679.84;;;6.83;92.45
76434;BME280;65265;53.200;6.080;2023-02-23T13:50:26;101686.09;;;6.75;92.42
76434;BME280;65265;53.200;6.080;2023-02-23T13:55:41;101698.28;;;6.68;91.42
76434;BME280;65265;53.200;6.080;2023-02-23T14:00:36;101690.69;;;6.56;92.38
76434;BME280;65265;53.200;6.080;2023-02-23T14:05:28;101694.69;;;6.53;93.27
76434;BME280;65265;53.200;6.080;2023-02-23T14:10:22;101697.03;;;6.38;91.75
76434;BME280;65265;53.200;6.080;2023-02-23T14:15:40;101711.63;;;6.41;91.77
76434;BME280;65265;53.200;6.080;2023-02-23T14:20:43;101711.75;;;6.42;91.01
76434;BME280;65265;53.200;6.080;2023-02-23T14:25:45;101715.53;;;6.24;91.55
76434;BME280;65265;53.200;6.080;2023-02-23T14:30:45;101709.47;;;6.11;91.43
76434;BME280;65265;53.200;6.080;2023-02-23T14:35:43;101713.50;;;6.32;90.19
76434;BME280;65265;53.200;6.080;2023-02-23T14:40:39;101720.81;;;6.27;89.84
76434;BME280;65265;53.200;6.080;2023-02-23T14:45:35;101714.22;;;6.18;90.31
76434;BME280;65265;53.200;6.080;2023-02-23T14:50:30;101706.47;;;6.16;89.30
76434;BME280;65265;53.200;6.080;2023-02-23T14:55:24;101708.34;;;6.19;91.01
76434;BME280;65265;53.200;6.080;2023-02-23T15:00:20;101715.97;;;6.30;89.15
76434;BME280;65265;53.200;6.080;2023-02-23T15:05:14;101720.47;;;6.34;88.19
76434;BME280;65265;53.200;6.080;2023-02-23T15:10:11;101711.09;;;6.33;84.18
76434;BME280;65265;53.200;6.080;2023-02-23T15:15:12;101712.50;;;6.41;83.81
76434;BME280;65265;53.200;6.080;2023-02-23T15:20:11;101717.59;;;6.41;84.29
76434;BME280;65265;53.200;6.080;2023-02-23T15:25:13;101718.00;;;6.47;85.56
76434;BME280;65265;53.200;6.080;2023-02-23T15:30:23;101715.69;;;6.50;82.33
76434;BME280;65265;53.200;6.080;2023-02-23T15:35:16;101715.00;;;6.53;80.53
76434;BME280;65265;53.200;6.080;2023-02-23T15:40:13;101720.00;;;6.51;78.88
76434;BME280;65265;53.200;6.080;2023-02-23T15:45:13;101719.56;;;6.45;78.93
76434;BME280;65265;53.200;6.080;2023-02-23T15:50:13;101724.53;;;6.44;79.49
76434;BME280;65265;53.200;6.080;2023-02-23T15:55:07;101728.88;;;6.33;78.26
76434;BME280;65265;53.200;6.080;2023-02-23T16:00:09;101734.84;;;6.34;77.77
76434;BME280;65265;53.200;6.080;2023-02-23T16:05:17;101733.88;;;6.20;79.67
76434;BME280;65265;53.200;6.080;2023-02-23T16:10:19;101736.19;;;6.17;80.81
76434;BME280;65265;53.200;6.080;2023-02-23T16:15:22;101735.75;;;6.11;78.28
76434;BME280;65265;53.200;6.080;2023-02-23T16:20:16;101738.84;;;6.07;77.05
76434;BME280;65265;53.200;6.080;2023-02-23T16:25:13;101741.16;;;6.04;77.42
76434;BME280;65265;53.200;6.080;2023-02-23T16:30:16;101745.25;;;6.02;76.98
76434;BME280;65265;53.200;6.080;2023-02-23T16:35:15;101739.75;;;5.96;76.11
76434;BME280;65265;53.200;6.080;2023-02-23T16:40:11;101731.78;;;5.80;76.00
76434;BME280;65265;53.200;6.080;2023-02-23T16:45:04;101735.72;;;5.65;77.01
76434;BME280;65265;53.200;6.080;2023-02-23T16:49:57;101737.38;;;5.53;76.12
76434;BME280;65265;53.200;6.080;2023-02-23T16:54:50;101737.16;;;5.50;76.65
76434;BME280;65265;53.200;6.080;2023-02-23T16:59:42;101724.00;;;5.44;76.61
76434;BME280;65265;53.200;6.080;2023-02-23T17:04:33;101734.03;;;5.31;76.86
76434;BME280;65265;53.200;6.080;2023-02-23T17:09:25;101733.00;;;5.18;77.34
76434;BME280;65265;53.200;6.080;2023-02-23T17:14:23;101729.19;;;5.01;77.17
76434;BME280;65265;53.200;6.080;2023-02-23T17:19:17;101740.88;;;4.99;78.30
76434;BME280;65265;53.200;6.080;2023-02-23T17:24:09;101744.19;;;4.98;79.20
76434;BME280;65265;53.200;6.080;2023-02-23T17:29:00;101750.25;;;5.00;79.61
76434;BME280;65265;53.200;6.080;2023-02-23T17:33:53;101752.56;;;4.97;80.61
76434;BME280;65265;53.200;6.080;2023-02-23T17:38:45;101744.19;;;4.98;81.05
76434;BME280;65265;53.200;6.080;2023-02-23T17:43:37;101747.25;;;4.94;81.44
76434;BME280;65265;53.200;6.080;2023-02-23T17:48:28;101741.50;;;4.85;81.94
76434;BME280;65265;53.200;6.080;2023-02-23T17:53:25;101741.44;;;4.74;82.20
76434;BME280;65265;53.200;6.080;2023-02-23T17:58:16;101752.28;;;4.62;82.14
76434;BME280;65265;53.200;6.080;2023-02-23T18:03:08;101752.00;;;4.47;82.30
76434;BME280;65265;53.200;6.080;2023-02-23T18:07:59;101752.66;;;4.35;82.79
76434;BME280;65265;53.200;6.080;2023-02-23T18:12:53;101757.66;;;4.23;83.19
76434;BME280;65265;53.200;6.080;2023-02-23T18:17:44;101759.34;;;4.13;83.74
76434;BME280;65265;53.200;6.080;2023-02-23T18:22:36;101765.69;;;4.08;84.40
76434;BME280;65265;53.200;6.080;2023-02-23T18:27:28;101759.63;;;4.06;84.69
76434;BME280;65265;53.200;6.080;2023-02-23T18:32:21;101752.16;;;4.07;84.91
76434;BME280;65265;53.200;6.080;2023-02-23T18:37:12;101758.22;;;4.09;84.72
76434;BME280;65265;53.200;6.080;2023-02-23T18:42:10;101754.91;;;4.10;84.89
76434;BME280;65265;53.200;6.080;2023-02-23T18:47:02;101754.03;;;4.10;84.75
76434;BME280;65265;53.200;6.080;2023-02-23T18:51:55;101751.75;;;4.13;84.82
76434;BME280;65265;53.200;6.080;2023-02-23T18:56:47;101752.75;;;4.15;84.85
76434;BME280;65265;53.200;6.080;2023-02-23T19:01:39;101756.31;;;4.17;85.07
76434;BME280;65265;53.200;6.080;2023-02-23T19:06:32;101750.22;;;4.15;84.89
76434;BME280;65265;53.200;6.080;2023-02-23T19:11:26;101755.19;;;4.13;84.85
76434;BME280;65265;53.200;6.080;2023-02-23T19:16:19;101751.50;;;4.10;84.32
76434;BME280;65265;53.200;6.080;2023-02-23T19:21:11;101746.72;;;4.03;84.11
76434;BME280;65265;53.200;6.080;2023-02-23T19:26:03;101749.78;;;3.99;84.07
76434;BME280;65265;53.200;6.080;2023-02-23T19:31:02;101756.09;;;3.94;84.05
76434;BME280;65265;53.200;6.080;2023-02-23T19:35:53;101742.34;;;3.90;84.19
76434;BME280;65265;53.200;6.080;2023-02-23T19:40:45;101743.59;;;3.85;83.82
76434;BME280;65265;53.200;6.080;2023-02-23T19:45:36;101737.44;;;3.72;83.31
76434;BME280;65265;53.200;6.080;2023-02-23T19:50:31;101726.34;;;3.60;83.24
76434;BME280;65265;53.200;6.080;2023-02-23T19:55:24;101726.25;;;3.48;83.65
76434;BME280;65265;53.200;6.080;2023-02-23T20:00:16;101725.75;;;3.42;83.93
76434;BME280;65265;53.200;6.080;2023-02-23T20:05:09;101731.44;;;3.40;83.55
76434;BME280;65265;53.200;6.080;2023-02-23T20:10:02;101718.44;;;3.35;83.62
76434;BME280;65265;53.200;6.080;2023-02-23T20:14:54;101724.63;;;3.39;82.19
76434;BME280;65265;53.200;6.080;2023-02-23T20:19:46;101731.69;;;3.43;82.52
76434;BME280;65265;53.200;6.080;2023-02-23T20:24:38;101722.72;;;3.46;82.87
76434;BME280;65265;53.200;6.080;2023-02-23T20:29:32;101723.09;;;3.51;83.11
76434;BME280;65265;53.200;6.080;2023-02-23T20:34:23;101725.72;;;3.52;83.11
76434;BME280;65265;53.200;6.080;2023-02-23T20:39:15;101715.97;;;3.57;82.66
76434;BME280;65265;53.200;6.080;2023-02-23T20:44:07;101724.72;;;3.60;82.51
76434;BME280;65265;53.200;6.080;2023-02-23T20:49:00;101722.56;;;3.65;83.04
76434;BME280;65265;53.200;6.080;2023-02-23T20:53:52;101723.31;;;3.64;82.26
76434;BME280;65265;53.200;6.080;2023-02-23T20:58:44;101725.84;;;3.64;81.72
76434;BME280;65265;53.200;6.080;2023-02-23T21:03:35;101721.78;;;3.66;81.80
76434;BME280;65265;53.200;6.080;2023-02-23T21:08:29;101716.19;;;3.70;81.94
76434;BME280;65265;53.200;6.080;2023-02-23T21:13:20;101719.72;;;3.72;82.36
76434;BME280;65265;53.200;6.080;2023-02-23T21:18:12;101717.47;;;3.75;81.56
76434;BME280;65265;53.200;6.080;2023-02-23T21:23:04;101711.13;;;3.80;81.56
76434;BME280;65265;53.200;6.080;2023-02-23T21:27:57;101714.91;;;3.85;81.24
76434;BME280;65265;53.200;6.080;2023-02-23T21:32:51;101716.03;;;3.88;81.46
76434;BME280;65265;53.200;6.080;2023-02-23T21:37:43;101704.41;;;3.90;81.62
76434;BME280;65265;53.200;6.080;2023-02-23T21:42:35;101701.97;;;3.92;81.88
76434;BME280;65265;53.200;6.080;2023-02-23T21:47:27;101688.09;;;3.87;81.30
76434;BME280;65265;53.200;6.080;2023-02-23T21:52:19;101686.19;;;3.84;81.24
76434;BME280;65265;53.200;6.080;2023-02-23T21:57:11;101677.00;;;3.75;81.44
76434;BME280;65265;53.200;6.080;2023-02-23T22:02:04;101667.91;;;3.67;81.17
76434;BME280;65265;53.200;6.080;2023-02-23T22:06:56;101669.31;;;3.63;81.16
76434;BME280;65265;53.200;6.080;2023-02-23T22:11:48;101665.66;;;3.60;81.42
76434;BME280;65265;53.200;6.080;2023-02-23T22:16:39;101662.34;;;3.61;81.89
76434;BME280;65265;53.200;6.080;2023-02-23T22:21:33;101652.75;;;3.67;80.54
76434;BME280;65265;53.200;6.080;2023-02-23T22:26:26;101645.16;;;3.67;79.46
76434;BME280;65265;53.200;6.080;2023-02-23T22:31:19;101640.09;;;3.67;79.07
76434;BME280;65265;53.200;6.080;2023-02-23T22:36:12;101636.34;;;3.62;78.91
76434;BME280;65265;53.200;6.080;2023-02-23T22:41:07;101643.53;;;3.67;79.34
76434;BME280;65265;53.200;6.080;2023-02-23T22:46:01;101614.03;;;3.68;79.40
76434;BME280;65265;53.200;6.080;2023-02-23T22:50:52;101619.41;;;3.82;79.90
76434;BME280;65265;53.200;6.080;2023-02-23T22:55:45;101600.03;;;3.83;80.82
76434;BME280;65265;53.200;6.080;2023-02-23T23:00:36;101592.47;;;3.83;81.88
76434;BME280;65265;53.200;6.080;2023-02-23T23:05:30;101580.22;;;3.77;81.14
76434;BME280;65265;53.200;6.080;2023-02-23T23:10:21;101577.22;;;3.71;81.31
76434;BME280;65265;53.200;6.080;2023-02-23T23:15:13;101572.03;;;3.70;82.03
76434;BME280;65265;53.200;6.080;2023-02-23T23:20:10;101564.00;;;3.64;82.20
76434;BME280;65265;53.200;6.080;2023-02-23T23:25:03;101562.50;;;3.56;82.65
76434;BME280;65265;53.200;6.080;2023-02-23T23:30:04;101555.97;;;3.48;82.82
76434;BME280;65265;53.200;6.080;2023-02-23T23:34:56;101546.56;;;3.35;83.11
76434;BME280;65265;53.200;6.080;2023-02-23T23:39:48;101531.09;;;3.11;83.15
76434;BME280;65265;53.200;6.080;2023-02-23T23:44:52;101538.66;;;3.11;83.69
76434;BME280;65265;53.200;6.080;2023-02-23T23:49:46;101528.56;;;3.11;83.79
76434;BME280;65265;53.200;6.080;2023-02-23T23:54:37;101515.16;;;3.12;84.32
76434;BME280;65265;53.200;6.080;2023-02-23T23:59:31;101506.06;;;3.14;84.88
